Time;durP1;ratioP1;P1;durP2;ratioP2;P2;SDS_P1;SDS_P2;PMS_P1;PMS_P2;Temp;Humidity;BMP_temperature;BMP_pressure;BME280_temperature;BME280_humidity;BME280_pressure;Samples;Min_cycle;Max_cycle;Signal;HPM_P1;HPM_P2
2023/11/18 00:00:37;;;;;;;24.23;14.45;;;4.90;99.90;;;;;;4956585;28;86858;-69
2023/11/18 00:03:03;;;;;;;28.27;14.77;;;4.90;99.90;;;;;;4954389;28;87084;-69
2023/11/18 00:05:28;;;;;;;25.05;14.77;;;4.90;99.90;;;;;;4946197;28;86307;-69
2023/11/18 00:07:55;;;;;;;28.33;14.82;;;4.90;99.90;;;;;;4954025;28;86761;-68
2023/11/18 00:10:20;;;;;;;26.13;14.20;;;4.90;99.90;;;;;;4949552;28;90947;-69
2023/11/18 00:12:46;;;;;;;28.10;15.40;;;4.90;99.90;;;;;;4954762;28;87066;-69
2023/11/18 00:15:12;;;;;;;28.75;15.15;;;4.90;99.90;;;;;;4948514;28;86738;-69
2023/11/18 00:17:38;;;;;;;26.50;14.63;;;5.00;99.90;;;;;;4944092;28;87078;-68
2023/11/18 00:20:09;;;;;;;30.10;14.65;;;5.00;99.90;;;;;;4952542;28;90706;-69
2023/11/18 00:22:35;;;;;;;28.13;15.18;;;4.90;99.90;;;;;;4952384;28;86795;-69
2023/11/18 00:25:04;;;;;;;24.65;14.48;;;4.90;99.90;;;;;;4946429;28;87450;-69
2023/11/18 00:27:31;;;;;;;29.45;14.57;;;5.00;99.90;;;;;;4953287;28;86256;-69
2023/11/18 00:29:56;;;;;;;29.63;14.48;;;5.00;99.90;;;;;;4947513;28;90460;-69
2023/11/18 00:32:22;;;;;;;32.25;14.90;;;5.00;99.90;;;;;;4954154;28;86357;-69
2023/11/18 00:34:47;;;;;;;25.42;14.20;;;5.00;99.90;;;;;;4949246;28;86568;-70
2023/11/18 00:37:13;;;;;;;26.88;13.60;;;5.00;99.90;;;;;;4949315;28;86975;-69
2023/11/18 00:39:39;;;;;;;26.95;13.98;;;5.00;99.90;;;;;;4948146;28;87797;-68
2023/11/18 00:42:05;;;;;;;29.52;13.88;;;5.00;99.90;;;;;;4951161;28;85960;-71
2023/11/18 00:44:31;;;;;;;23.52;13.65;;;5.10;99.90;;;;;;4955831;28;87624;-69
2023/11/18 00:46:57;;;;;;;35.95;15.18;;;5.10;99.90;;;;;;4947213;28;86871;-69
2023/11/18 00:49:23;;;;;;;25.70;13.43;;;5.10;99.90;;;;;;4950016;28;87036;-69
2023/11/18 00:51:48;;;;;;;30.10;14.63;;;5.10;99.90;;;;;;4950488;28;90026;-70
2023/11/18 00:54:14;;;;;;;24.05;13.88;;;5.10;99.90;;;;;;4958607;28;86789;-70
2023/11/18 00:56:40;;;;;;;31.65;15.15;;;5.10;99.90;;;;;;4947939;28;86432;-68
2023/11/18 00:59:06;;;;;;;27.15;14.40;;;5.20;99.90;;;;;;4942819;28;86983;-69
2023/11/18 01:01:32;;;;;;;30.55;14.55;;;5.20;99.90;;;;;;4946955;28;88224;-68
2023/11/18 01:03:59;;;;;;;29.20;13.63;;;5.20;99.90;;;;;;4946621;28;86905;-69
2023/11/18 01:06:26;;;;;;;24.17;12.45;;;5.20;99.90;;;;;;4946384;28;87350;-70
2023/11/18 01:08:52;;;;;;;27.77;14.60;;;5.20;99.90;;;;;;4951784;28;90601;-69
2023/11/18 01:11:22;;;;;;;30.05;14.30;;;5.30;99.90;;;;;;4950596;28;88557;-69
2023/11/18 01:13:50;;;;;;;24.50;13.63;;;5.30;99.90;;;;;;4945360;28;86387;-69
2023/11/18 01:16:17;;;;;;;30.67;14.63;;;5.30;99.90;;;;;;4948635;28;87021;-68
2023/11/18 01:18:43;;;;;;;26.00;14.13;;;5.30;99.90;;;;;;4955038;28;87567;-68
2023/11/18 01:21:09;;;;;;;24.88;14.57;;;5.30;99.90;;;;;;4951680;28;86708;-70
2023/11/18 01:23:35;;;;;;;30.83;14.60;;;5.30;99.90;;;;;;4948877;28;86668;-70
2023/11/18 01:26:04;;;;;;;31.45;14.50;;;5.30;99.90;;;;;;4954282;28;86531;-69
2023/11/18 01:28:36;;;;;;;27.75;14.40;;;5.40;99.90;;;;;;4955527;28;86956;-69
2023/11/18 01:31:09;;;;;;;27.35;15.45;;;5.40;99.90;;;;;;4953845;28;87921;-69
2023/11/18 01:33:37;;;;;;;29.17;15.30;;;5.40;99.90;;;;;;4956875;28;87677;-70
2023/11/18 01:36:04;;;;;;;25.60;14.68;;;5.40;99.90;;;;;;4949326;28;86987;-70
2023/11/18 01:38:30;;;;;;;29.30;15.30;;;5.40;99.90;;;;;;4952214;28;89542;-68
2023/11/18 01:40:56;;;;;;;27.02;14.90;;;5.40;99.90;;;;;;4954624;28;87162;-69
2023/11/18 01:43:22;;;;;;;29.13;16.13;;;5.40;99.90;;;;;;4957012;28;86890;-70
2023/11/18 01:45:48;;;;;;;30.42;15.90;;;5.40;99.90;;;;;;4955220;28;86897;-70
2023/11/18 01:48:15;;;;;;;25.10;14.55;;;5.50;99.90;;;;;;4956051;28;87271;-69
2023/11/18 01:50:41;;;;;;;30.92;15.45;;;5.40;99.90;;;;;;4948393;28;90236;-70
2023/11/18 01:53:08;;;;;;;29.95;14.93;;;5.40;99.90;;;;;;4958208;28;87098;-69
2023/11/18 01:55:35;;;;;;;28.10;15.93;;;5.40;99.90;;;;;;4953216;28;86855;-69
2023/11/18 01:58:08;;;;;;;29.65;15.10;;;5.40;99.90;;;;;;4948024;28;86919;-70
2023/11/18 02:00:38;;;;;;;25.02;14.60;;;5.50;99.90;;;;;;4946864;28;90170;-69
2023/11/18 02:03:05;;;;;;;30.33;14.70;;;5.40;99.90;;;;;;4950415;28;87368;-70
2023/11/18 02:05:32;;;;;;;24.95;14.43;;;5.40;99.90;;;;;;4952866;28;88012;-69
2023/11/18 02:08:04;;;;;;;25.27;14.60;;;5.50;99.90;;;;;;4947108;28;90676;-70
2023/11/18 02:10:50;;;;;;;27.60;14.07;;;5.50;99.90;;;;;;4951146;28;89663;-69
2023/11/18 02:13:25;;;;;;;27.20;14.32;;;5.50;99.90;;;;;;4954597;28;91402;-71
2023/11/18 02:15:53;;;;;;;26.10;13.70;;;5.50;99.90;;;;;;4954319;28;86862;-69
2023/11/18 02:18:19;;;;;;;27.67;15.27;;;5.50;99.90;;;;;;4957467;28;87473;-69
2023/11/18 02:20:47;;;;;;;24.42;12.75;;;5.50;99.90;;;;;;4951087;28;90395;-70
2023/11/18 02:23:15;;;;;;;24.60;13.63;;;5.50;99.90;;;;;;4947368;28;86309;-69
2023/11/18 02:25:47;;;;;;;27.75;13.35;;;5.60;99.90;;;;;;4949191;28;86923;-69
2023/11/18 02:28:13;;;;;;;24.42;12.13;;;5.60;99.90;;;;;;4946980;28;87876;-70
2023/11/18 02:30:40;;;;;;;25.30;12.30;;;5.60;99.90;;;;;;4956658;28;89563;-69
2023/11/18 02:33:22;;;;;;;19.38;11.02;;;5.60;99.90;;;;;;4953548;28;86527;-69
2023/11/18 02:36:02;;;;;;;20.63;10.20;;;5.60;99.90;;;;;;4953603;28;87175;-69
2023/11/18 02:38:36;;;;;;;25.58;11.90;;;5.60;99.90;;;;;;4956764;28;89127;-69
2023/11/18 02:41:09;;;;;;;19.27;10.98;;;5.60;99.90;;;;;;4950643;28;89783;-69
2023/11/18 02:43:37;;;;;;;24.73;10.60;;;5.60;99.90;;;;;;4952577;28;86159;-69
2023/11/18 02:46:06;;;;;;;22.08;10.98;;;5.60;99.90;;;;;;4950297;28;86442;-69
2023/11/18 02:48:32;;;;;;;19.88;10.88;;;5.60;99.90;;;;;;4960720;28;89252;-69
2023/11/18 02:50:58;;;;;;;17.73;9.57;;;5.60;99.90;;;;;;4957079;28;89576;-69
2023/11/18 02:53:24;;;;;;;25.55;10.23;;;5.60;99.90;;;;;;4957884;28;86640;-69
2023/11/18 02:55:51;;;;;;;16.98;9.85;;;5.60;99.90;;;;;;4960128;28;86362;-70
2023/11/18 02:58:18;;;;;;;20.40;10.52;;;5.60;99.90;;;;;;4946438;28;88939;-70
2023/11/18 03:00:44;;;;;;;19.58;10.60;;;5.60;99.90;;;;;;4957374;28;89453;-69
2023/11/18 03:03:10;;;;;;;19.33;9.90;;;5.60;99.90;;;;;;4959479;28;87216;-69
2023/11/18 03:05:37;;;;;;;18.58;9.20;;;5.60;99.90;;;;;;4948107;28;87013;-68
2023/11/18 03:08:05;;;;;;;16.95;9.48;;;5.60;99.90;;;;;;4951823;28;88263;-70
2023/11/18 03:10:34;;;;;;;17.92;9.50;;;5.50;99.90;;;;;;4950004;28;86672;-70
2023/11/18 03:13:00;;;;;;;17.75;9.35;;;5.50;99.90;;;;;;4949768;28;87323;-69
2023/11/18 03:15:27;;;;;;;19.25;9.18;;;5.50;99.90;;;;;;4947199;28;86337;-70
2023/11/18 03:17:52;;;;;;;17.08;9.27;;;5.50;99.90;;;;;;4956348;28;86939;-70
2023/11/18 03:20:19;;;;;;;15.98;8.23;;;5.50;99.90;;;;;;4948904;28;86330;-70
2023/11/18 03:22:46;;;;;;;15.45;8.65;;;5.40;99.90;;;;;;4948911;28;87721;-69
2023/11/18 03:25:12;;;;;;;22.58;9.05;;;5.40;99.90;;;;;;4957636;28;86547;-70
2023/11/18 03:27:38;;;;;;;21.90;8.80;;;5.50;99.90;;;;;;4952857;28;89724;-70
2023/11/18 03:30:06;;;;;;;17.38;8.73;;;5.50;99.90;;;;;;4953444;28;89762;-69
2023/11/18 03:32:32;;;;;;;19.85;8.95;;;5.50;99.90;;;;;;4955336;28;87213;-70
2023/11/18 03:34:59;;;;;;;18.13;8.50;;;5.50;99.90;;;;;;4954360;28;87764;-70
2023/11/18 03:37:26;;;;;;;14.93;7.95;;;5.50;99.90;;;;;;4957050;28;86954;-70
2023/11/18 03:39:52;;;;;;;16.70;8.43;;;5.50;99.90;;;;;;4958806;28;89491;-69
2023/11/18 03:42:18;;;;;;;17.15;8.18;;;5.50;99.90;;;;;;4956464;28;87149;-69
2023/11/18 03:44:47;;;;;;;15.02;7.03;;;5.50;99.90;;;;;;4944383;28;86395;-69
2023/11/18 03:47:13;;;;;;;14.13;8.23;;;5.60;99.90;;;;;;4948093;28;87276;-69
2023/11/18 03:49:40;;;;;;;13.30;7.10;;;5.60;99.90;;;;;;4950356;28;90457;-70
2023/11/18 03:52:05;;;;;;;15.15;7.78;;;5.60;99.90;;;;;;4949318;28;87121;-69
2023/11/18 03:54:31;;;;;;;12.45;7.07;;;5.60;99.90;;;;;;4949251;28;86194;-71
2023/11/18 03:56:57;;;;;;;11.15;6.40;;;5.60;99.90;;;;;;4948502;28;90278;-69
2023/11/18 03:59:23;;;;;;;16.20;6.72;;;5.60;99.90;;;;;;4945967;28;87004;-70
2023/11/18 04:01:50;;;;;;;15.38;6.93;;;5.70;99.90;;;;;;4949885;28;86587;-70
2023/11/18 04:04:16;;;;;;;13.82;6.07;;;5.70;99.90;;;;;;4948412;28;85826;-70
2023/11/18 04:06:42;;;;;;;13.70;6.68;;;5.70;99.90;;;;;;4949993;28;90296;-69
2023/11/18 04:09:09;;;;;;;10.15;5.22;;;5.70;99.90;;;;;;4945237;28;89003;-70
2023/11/18 04:11:35;;;;;;;9.65;5.55;;;5.70;99.90;;;;;;4945830;28;86553;-69
2023/11/18 04:14:03;;;;;;;10.77;5.30;;;5.70;99.90;;;;;;4951792;28;87037;-69
2023/11/18 04:16:28;;;;;;;13.20;5.75;;;5.70;99.90;;;;;;4954496;28;86549;-70
2023/11/18 04:18:54;;;;;;;10.75;5.60;;;5.70;99.90;;;;;;4948656;28;88497;-71
2023/11/18 04:21:20;;;;;;;10.77;5.85;;;5.70;99.90;;;;;;4949331;28;86892;-70
2023/11/18 04:23:46;;;;;;;11.70;5.45;;;5.70;99.90;;;;;;4952540;28;86425;-70
2023/11/18 04:26:12;;;;;;;26.48;5.85;;;5.70;99.90;;;;;;4948374;28;87134;-69
2023/11/18 04:28:38;;;;;;;9.13;4.55;;;5.70;99.90;;;;;;4959795;28;87382;-69
2023/11/18 04:31:05;;;;;;;15.05;4.80;;;5.70;99.90;;;;;;4948803;28;86643;-69
2023/11/18 04:33:31;;;;;;;11.18;4.95;;;5.70;99.90;;;;;;4946365;28;86269;-70
2023/11/18 04:35:57;;;;;;;12.35;4.68;;;5.70;99.90;;;;;;4948590;28;87832;-70
2023/11/18 04:38:23;;;;;;;9.52;4.35;;;5.70;99.90;;;;;;4943786;28;86180;-70
2023/11/18 04:40:49;;;;;;;10.52;4.32;;;5.70;99.90;;;;;;4950068;28;86917;-70
2023/11/18 04:43:15;;;;;;;9.95;4.32;;;5.80;99.90;;;;;;4953020;28;86809;-69
2023/11/18 04:45:42;;;;;;;10.65;4.15;;;5.80;99.90;;;;;;4954410;28;86660;-70
2023/11/18 04:48:08;;;;;;;13.30;4.82;;;5.80;99.90;;;;;;4954856;28;86198;-69
2023/11/18 04:50:34;;;;;;;12.32;4.07;;;5.90;99.90;;;;;;4951200;28;86829;-69
2023/11/18 04:52:59;;;;;;;11.68;5.28;;;5.90;99.90;;;;;;4956050;28;87234;-72
2023/11/18 04:55:28;;;;;;;17.17;4.68;;;5.90;99.90;;;;;;4959586;28;91027;-70
2023/11/18 04:57:54;;;;;;;9.02;4.10;;;5.90;99.90;;;;;;4950337;28;86536;-70
2023/11/18 05:00:21;;;;;;;12.38;4.32;;;6.00;99.90;;;;;;4950131;28;86965;-70
2023/11/18 05:02:47;;;;;;;11.73;4.20;;;6.00;99.90;;;;;;4952722;28;86330;-69
2023/11/18 05:05:14;;;;;;;10.00;4.18;;;6.00;99.90;;;;;;4954849;28;87287;-69
2023/11/18 05:07:40;;;;;;;12.27;4.35;;;6.10;99.90;;;;;;4949489;28;90045;-70
2023/11/18 05:10:13;;;;;;;10.85;4.28;;;6.10;99.90;;;;;;4953494;28;86315;-69
2023/11/18 05:12:39;;;;;;;12.25;4.25;;;6.10;99.90;;;;;;4954339;28;86285;-70
2023/11/18 05:15:07;;;;;;;15.93;4.35;;;6.10;99.90;;;;;;4952497;28;87583;-69
2023/11/18 05:17:39;;;;;;;11.30;4.13;;;6.20;99.90;;;;;;4952425;28;91218;-70
2023/11/18 05:20:08;;;;;;;13.25;4.38;;;6.20;99.90;;;;;;4955121;28;86922;-69
2023/11/18 05:22:36;;;;;;;11.25;4.30;;;6.20;99.90;;;;;;4955764;28;87052;-69
2023/11/18 05:25:04;;;;;;;13.85;4.10;;;6.20;99.90;;;;;;4952952;28;91759;-69
2023/11/18 05:27:31;;;;;;;7.38;4.03;;;6.20;99.90;;;;;;4968065;28;94642;-70
2023/11/18 05:29:59;;;;;;;12.32;4.28;;;6.30;99.90;;;;;;4952177;28;87187;-70
2023/11/18 05:32:27;;;;;;;10.05;4.20;;;6.30;99.90;;;;;;4950209;28;87013;-70
2023/11/18 05:34:54;;;;;;;11.93;4.43;;;6.30;99.90;;;;;;4951589;28;87061;-70
2023/11/18 05:37:21;;;;;;;12.93;4.00;;;6.30;99.90;;;;;;4948242;28;86464;-69
2023/11/18 05:39:49;;;;;;;15.82;4.15;;;6.30;99.90;;;;;;4951428;28;86934;-70
2023/11/18 05:42:15;;;;;;;11.93;4.07;;;6.30;99.90;;;;;;4956221;28;86739;-69
2023/11/18 05:44:42;;;;;;;9.65;4.05;;;6.30;99.90;;;;;;4950822;28;87540;-70
2023/11/18 05:47:08;;;;;;;9.13;4.78;;;6.30;99.90;;;;;;4959995;28;90203;-69
2023/11/18 05:49:34;;;;;;;13.68;4.13;;;6.30;99.90;;;;;;4959650;28;85969;-69
2023/11/18 05:52:00;;;;;;;12.00;4.28;;;6.30;99.90;;;;;;4956420;28;86459;-70
2023/11/18 05:54:26;;;;;;;12.75;4.05;;;6.40;99.90;;;;;;4957353;28;86745;-69
2023/11/18 05:56:53;;;;;;;13.70;4.35;;;6.40;99.90;;;;;;4951373;28;86601;-69
2023/11/18 05:59:23;;;;;;;11.82;5.68;;;6.40;99.90;;;;;;4952140;28;86458;-69
2023/11/18 06:01:49;;;;;;;10.90;3.80;;;6.50;99.90;;;;;;4952078;28;86243;-69
2023/11/18 06:04:15;;;;;;;10.70;4.15;;;6.40;99.90;;;;;;4956340;28;87384;-71
2023/11/18 06:06:41;;;;;;;18.98;4.18;;;6.50;99.90;;;;;;4947804;28;89726;-69
2023/11/18 06:09:14;;;;;;;13.75;4.40;;;6.50;99.90;;;;;;4944410;28;86815;-70
2023/11/18 06:11:41;;;;;;;13.48;4.30;;;6.50;99.90;;;;;;4955110;28;87326;-70
2023/11/18 06:14:08;;;;;;;7.00;3.65;;;6.50;99.90;;;;;;4956733;28;87078;-70
2023/11/18 06:16:35;;;;;;;9.00;3.70;;;6.50;99.90;;;;;;4952792;28;86509;-70
2023/11/18 06:19:04;;;;;;;11.43;3.53;;;6.60;99.90;;;;;;4946704;28;86597;-70
2023/11/18 06:21:31;;;;;;;10.27;4.03;;;6.60;99.90;;;;;;4947810;28;86725;-69
2023/11/18 06:24:00;;;;;;;12.02;4.38;;;6.60;99.90;;;;;;4948214;28;90369;-70
2023/11/18 06:26:27;;;;;;;14.68;4.00;;;6.60;99.90;;;;;;4952292;28;87443;-69
2023/11/18 06:28:54;;;;;;;11.55;3.88;;;6.60;99.90;;;;;;4946322;28;86715;-70
2023/11/18 06:31:20;;;;;;;8.55;3.70;;;6.60;99.90;;;;;;4956756;28;86668;-70
2023/11/18 06:33:47;;;;;;;8.43;4.15;;;6.60;99.90;;;;;;4952215;28;87063;-69
2023/11/18 06:36:16;;;;;;;10.40;3.70;;;6.60;99.90;;;;;;4950552;28;91151;-69
2023/11/18 06:38:45;;;;;;;12.50;4.78;;;6.70;99.90;;;;;;4947768;28;87378;-70
2023/11/18 06:41:16;;;;;;;8.60;3.65;;;6.70;99.90;;;;;;4958165;28;86415;-70
2023/11/18 06:46:39;;;;;;;10.55;3.65;;;6.70;99.90;;;;;;4942685;28;87200;-70
2023/11/18 06:49:06;;;;;;;9.23;3.78;;;6.70;99.90;;;;;;4957936;28;90573;-70
2023/11/18 06:51:35;;;;;;;10.20;3.50;;;6.70;99.90;;;;;;4958145;28;87196;-69
2023/11/18 06:54:05;;;;;;;11.30;3.53;;;6.80;99.90;;;;;;4949813;28;87200;-69
2023/11/18 06:56:31;;;;;;;15.48;3.33;;;6.80;99.90;;;;;;4958545;28;86388;-69
2023/11/18 06:58:57;;;;;;;14.63;4.68;;;6.80;99.90;;;;;;4958595;28;86151;-69
2023/11/18 07:01:23;;;;;;;12.50;3.13;;;6.90;99.90;;;;;;4945109;28;86647;-70
2023/11/18 07:03:51;;;;;;;7.15;3.10;;;6.90;99.90;;;;;;4956730;28;86844;-69
2023/11/18 07:06:27;;;;;;;10.10;3.05;;;6.90;99.90;;;;;;4953429;28;86442;-70
2023/11/18 07:08:54;;;;;;;15.93;3.70;;;6.90;99.90;;;;;;4951349;28;86767;-69
2023/11/18 07:11:20;;;;;;;9.13;3.28;;;6.90;99.90;;;;;;4950952;28;86566;-69
2023/11/18 07:13:49;;;;;;;7.88;2.95;;;7.00;99.90;;;;;;4953586;28;86893;-70
2023/11/18 07:16:15;;;;;;;6.60;3.28;;;7.00;99.90;;;;;;4960844;28;86859;-70
2023/11/18 07:18:44;;;;;;;10.27;3.08;;;7.00;99.90;;;;;;4958153;28;87133;-70
2023/11/18 07:21:09;;;;;;;12.35;3.50;;;7.00;99.90;;;;;;4957263;28;86612;-69
2023/11/18 07:23:36;;;;;;;8.55;3.03;;;7.00;99.90;;;;;;4948486;28;89918;-69
2023/11/18 07:26:03;;;;;;;8.27;2.50;;;7.10;99.90;;;;;;4948676;28;89789;-69
2023/11/18 07:28:29;;;;;;;8.75;3.17;;;7.10;99.90;;;;;;4952474;28;86594;-70
2023/11/18 07:30:55;;;;;;;15.90;3.30;;;7.10;99.90;;;;;;4947529;28;86591;-70
2023/11/18 07:33:21;;;;;;;8.85;3.25;;;7.20;99.90;;;;;;4955835;28;87270;-70
2023/11/18 07:35:48;;;;;;;13.15;3.83;;;7.20;99.90;;;;;;4951496;28;89706;-69
2023/11/18 07:38:14;;;;;;;5.85;2.80;;;7.20;99.90;;;;;;4950457;28;86927;-68
2023/11/18 07:40:42;;;;;;;13.10;2.92;;;7.20;99.90;;;;;;4951415;28;88234;-69
2023/11/18 07:43:08;;;;;;;10.65;3.53;;;7.30;99.90;;;;;;4949998;28;87139;-69
2023/11/18 07:45:39;;;;;;;14.32;3.17;;;7.30;99.90;;;;;;4954304;28;87013;-69
2023/11/18 07:48:16;;;;;;;10.20;2.90;;;7.30;99.90;;;;;;4946870;28;87053;-69
2023/11/18 07:50:44;;;;;;;11.23;2.97;;;7.40;99.90;;;;;;4959028;28;86607;-68
2023/11/18 07:53:10;;;;;;;10.10;2.90;;;7.40;99.90;;;;;;4949784;28;87545;-69
2023/11/18 07:55:39;;;;;;;6.93;3.00;;;7.40;99.90;;;;;;4950832;28;89645;-69
2023/11/18 07:58:12;;;;;;;11.38;3.35;;;7.40;99.90;;;;;;4948986;28;88483;-69
2023/11/18 08:00:45;;;;;;;8.90;3.53;;;7.40;99.90;;;;;;4948708;28;86761;-69
2023/11/18 08:03:14;;;;;;;12.38;3.63;;;7.40;99.90;;;;;;4956040;28;90607;-70
2023/11/18 08:05:44;;;;;;;12.40;3.50;;;7.50;99.90;;;;;;4949502;28;87405;-69
2023/11/18 08:08:13;;;;;;;8.63;3.38;;;7.50;99.90;;;;;;4956039;28;94088;-69
2023/11/18 08:10:40;;;;;;;12.63;4.13;;;7.50;99.90;;;;;;4956805;28;86415;-69
2023/11/18 08:13:08;;;;;;;11.15;3.83;;;7.50;99.90;;;;;;4954642;28;92097;-69
2023/11/18 08:15:41;;;;;;;16.88;3.72;;;7.50;99.90;;;;;;4953172;28;86169;-70
2023/11/18 08:18:10;;;;;;;16.02;4.85;;;7.50;99.90;;;;;;4953293;28;86512;-69
2023/11/18 08:20:36;;;;;;;11.90;4.15;;;7.60;99.90;;;;;;4952591;28;86801;-69
2023/11/18 08:23:01;;;;;;;14.32;3.92;;;7.60;99.90;;;;;;4947395;28;86870;-69
2023/11/18 08:25:27;;;;;;;10.07;4.13;;;7.60;99.90;;;;;;4950164;28;87134;-69
2023/11/18 08:27:53;;;;;;;9.13;3.63;;;7.60;99.90;;;;;;4948210;28;86399;-70
2023/11/18 08:30:20;;;;;;;16.05;3.60;;;7.60;99.90;;;;;;4949412;28;86835;-69
2023/11/18 08:32:47;;;;;;;10.15;4.43;;;7.60;99.90;;;;;;4955373;28;86819;-70
2023/11/18 08:35:13;;;;;;;12.65;3.78;;;7.60;99.90;;;;;;4950458;28;88439;-69
2023/11/18 08:37:40;;;;;;;11.88;4.00;;;7.60;99.90;;;;;;4959066;28;86478;-70
2023/11/18 08:40:16;;;;;;;11.75;4.13;;;7.70;99.90;;;;;;4950756;28;86458;-69
2023/11/18 08:42:49;;;;;;;11.45;3.95;;;7.70;99.90;;;;;;4949793;28;86934;-70
2023/11/18 08:45:27;;;;;;;12.35;4.80;;;7.70;99.90;;;;;;4949056;28;89480;-69
2023/11/18 08:47:55;;;;;;;18.42;4.35;;;7.70;99.90;;;;;;4956120;28;87348;-69
2023/11/18 08:50:23;;;;;;;12.25;4.35;;;7.70;99.90;;;;;;4951371;28;86934;-69
2023/11/18 08:52:53;;;;;;;10.55;4.43;;;7.70;99.90;;;;;;4946329;28;87620;-70
2023/11/18 08:55:20;;;;;;;12.63;4.45;;;7.80;99.90;;;;;;4955683;28;86296;-70
2023/11/18 08:57:59;;;;;;;10.27;4.40;;;7.80;99.90;;;;;;4946628;28;87131;-70
2023/11/18 09:00:52;;;;;;;15.07;4.75;;;7.80;99.90;;;;;;4956126;28;86301;-70
2023/11/18 09:03:34;;;;;;;10.98;3.28;;;7.80;99.90;;;;;;4955425;28;87815;-73
2023/11/18 09:06:05;;;;;;;10.65;4.28;;;7.80;99.90;;;;;;4948316;28;89929;-70
2023/11/18 09:08:36;;;;;;;9.32;3.83;;;7.80;99.90;;;;;;4946771;28;86979;-70
2023/11/18 09:11:05;;;;;;;10.60;3.80;;;7.90;99.90;;;;;;4951150;28;86481;-70
2023/11/18 09:13:31;;;;;;;14.45;4.40;;;7.90;99.90;;;;;;4951577;28;90848;-69
2023/11/18 09:16:00;;;;;;;12.63;4.07;;;7.90;99.90;;;;;;4950395;28;86386;-70
2023/11/18 09:18:30;;;;;;;15.18;5.30;;;7.90;99.90;;;;;;4946665;28;86165;-69
2023/11/18 09:20:59;;;;;;;9.18;4.45;;;8.00;99.90;;;;;;4950821;28;86592;-70
2023/11/18 09:23:27;;;;;;;10.55;3.78;;;8.00;99.90;;;;;;4946445;28;90874;-70
2023/11/18 09:25:53;;;;;;;14.77;5.28;;;8.00;99.90;;;;;;4953146;28;86528;-70
2023/11/18 09:28:20;;;;;;;10.38;4.85;;;8.00;99.90;;;;;;4950709;28;87003;-70
2023/11/18 09:30:49;;;;;;;11.70;3.75;;;8.00;99.90;;;;;;4957135;28;86957;-69
2023/11/18 09:33:28;;;;;;;8.85;3.90;;;8.00;99.90;;;;;;4955546;28;87325;-70
2023/11/18 09:36:01;;;;;;;10.98;3.97;;;8.10;99.90;;;;;;4947747;28;89960;-71
2023/11/18 09:38:59;;;;;;;16.20;5.67;;;8.00;99.90;;;;;;4944191;28;87480;-70
2023/11/18 09:41:26;;;;;;;17.05;4.38;;;8.10;99.90;;;;;;4950011;28;86641;-70
2023/11/18 09:43:54;;;;;;;9.90;4.15;;;8.10;99.90;;;;;;4963185;28;86904;-70
2023/11/18 09:46:24;;;;;;;15.20;4.68;;;8.10;99.90;;;;;;4951568;28;89022;-70
2023/11/18 09:49:02;;;;;;;10.82;4.38;;;8.10;99.90;;;;;;4950485;28;86361;-70
2023/11/18 09:51:32;;;;;;;11.07;4.53;;;8.10;99.90;;;;;;4949786;28;86371;-70
2023/11/18 09:54:10;;;;;;;10.35;3.80;;;8.10;99.90;;;;;;4970070;28;90389;-70
2023/11/18 09:56:57;;;;;;;15.65;4.20;;;8.10;99.90;;;;;;4957186;28;86931;-70
2023/11/18 09:59:29;;;;;;;10.52;3.58;;;8.20;99.90;;;;;;4970244;28;87274;-70
2023/11/18 10:01:57;;;;;;;15.55;3.70;;;8.20;99.90;;;;;;4950602;28;86447;-70
2023/11/18 10:04:27;;;;;;;8.77;3.65;;;8.20;99.90;;;;;;4950945;28;90113;-70
2023/11/18 10:06:54;;;;;;;12.38;3.92;;;8.30;99.90;;;;;;4952561;28;89812;-70
2023/11/18 10:09:28;;;;;;;10.38;3.95;;;8.30;99.90;;;;;;4947022;28;87076;-69
2023/11/18 10:12:05;;;;;;;12.35;2.97;;;8.30;99.90;;;;;;4953258;28;86471;-70
2023/11/18 10:14:34;;;;;;;15.55;3.80;;;8.30;99.90;;;;;;4957598;28;87153;-69
2023/11/18 10:17:06;;;;;;;12.13;3.53;;;8.40;99.90;;;;;;4944527;28;90450;-70
2023/11/18 10:20:12;;;;;;;8.57;3.25;;;8.40;99.90;;;;;;4949481;28;86462;-69
2023/11/18 10:22:38;;;;;;;10.88;3.03;;;8.40;99.90;;;;;;4936569;28;88057;-69
2023/11/18 10:25:06;;;;;;;13.73;4.13;;;8.50;99.90;;;;;;4958687;28;90319;-70
2023/11/18 10:27:34;;;;;;;12.10;3.58;;;8.50;99.90;;;;;;4956791;28;87190;-70
2023/11/18 10:30:18;;;;;;;11.93;3.85;;;8.50;99.90;;;;;;4951554;28;88480;-68
2023/11/18 10:32:56;;;;;;;13.65;4.13;;;8.50;99.90;;;;;;4953838;28;86094;-70
2023/11/18 10:35:21;;;;;;;12.50;3.70;;;8.60;99.90;;;;;;4955810;28;87736;-70
2023/11/18 10:37:49;;;;;;;15.68;4.43;;;8.50;99.90;;;;;;4954543;28;87242;-70
2023/11/18 10:40:15;;;;;;;12.13;3.78;;;8.60;99.90;;;;;;4956421;28;86755;-70
2023/11/18 10:42:42;;;;;;;7.85;3.13;;;8.60;99.90;;;;;;4951355;28;86314;-71
2023/11/18 10:45:12;;;;;;;11.85;3.42;;;8.70;99.90;;;;;;4950902;28;86918;-70
2023/11/18 10:47:42;;;;;;;10.23;3.20;;;8.70;99.90;;;;;;4949592;28;90108;-70
2023/11/18 10:50:12;;;;;;;15.93;3.42;;;8.70;99.90;;;;;;4951884;28;86294;-70
2023/11/18 10:52:40;;;;;;;9.40;2.60;;;8.70;99.90;;;;;;4948264;28;87679;-71
2023/11/18 10:55:11;;;;;;;10.85;3.35;;;8.80;99.90;;;;;;4953634;28;91218;-70
2023/11/18 10:57:38;;;;;;;12.32;2.60;;;8.80;99.90;;;;;;4951349;28;89968;-70
2023/11/18 11:00:18;;;;;;;12.85;2.95;;;8.80;99.90;;;;;;4950508;28;86693;-71
2023/11/18 11:02:44;;;;;;;11.10;2.72;;;8.80;99.90;;;;;;4951147;28;86797;-70
2023/11/18 11:05:16;;;;;;;10.57;3.35;;;8.80;99.90;;;;;;4952690;28;86922;-70
2023/11/18 11:07:43;;;;;;;9.00;2.63;;;8.90;99.90;;;;;;4955189;28;89882;-70
2023/11/18 11:10:10;;;;;;;7.63;2.83;;;8.80;99.90;;;;;;4952045;28;86463;-70
2023/11/18 11:12:51;;;;;;;9.45;3.38;;;8.80;99.90;;;;;;4950042;28;86763;-71
2023/11/18 11:15:29;;;;;;;9.63;3.05;;;8.90;99.90;;;;;;4948776;28;87574;-70
2023/11/18 11:18:08;;;;;;;8.50;2.97;;;8.90;99.90;;;;;;4947661;28;89532;-71
2023/11/18 11:20:44;;;;;;;9.20;2.83;;;8.80;99.90;;;;;;4950388;28;86813;-70
2023/11/18 11:23:27;;;;;;;10.00;2.78;;;8.90;99.90;;;;;;4952384;28;85998;-70
2023/11/18 11:26:04;;;;;;;8.77;3.10;;;8.90;99.90;;;;;;4949173;28;88850;-69
2023/11/18 11:28:43;;;;;;;6.35;2.63;;;8.90;99.90;;;;;;4947673;28;89741;-70
2023/11/18 11:31:15;;;;;;;7.28;2.53;;;8.90;99.90;;;;;;4952255;28;87437;-70
2023/11/18 11:33:59;;;;;;;9.38;3.17;;;8.90;99.90;;;;;;4948616;28;86622;-70
2023/11/18 11:36:38;;;;;;;;;;;8.90;99.90;;;;;;4948439;28;90211;-70
2023/11/18 11:39:06;;;;;;;8.88;2.70;;;8.90;99.90;;;;;;4950932;28;86589;-70
2023/11/18 11:41:36;;;;;;;8.25;2.72;;;8.90;99.90;;;;;;4952994;28;86790;-70
2023/11/18 11:44:06;;;;;;;7.15;2.63;;;8.90;99.90;;;;;;4953069;28;87140;-70
2023/11/18 11:46:37;;;;;;;9.05;2.58;;;8.90;99.90;;;;;;4951316;28;90365;-70
2023/11/18 11:49:50;;;;;;;8.55;2.70;;;8.90;99.90;;;;;;4947498;28;86572;-70
2023/11/18 11:52:03;;;;;;;4.47;2.33;;;8.90;99.90;;;;;;4940932;28;86618;-71
2023/11/18 11:54:37;;;;;;;4.55;2.03;;;8.80;99.90;;;;;;4944776;28;87034;-71
2023/11/18 11:57:05;;;;;;;7.28;2.22;;;8.80;99.90;;;;;;4940835;28;89660;-71
2023/11/18 11:59:41;;;;;;;6.63;2.25;;;8.80;99.90;;;;;;4941879;28;87865;-70
2023/11/18 12:02:16;;;;;;;10.00;2.83;;;8.80;99.90;;;;;;4941387;28;86363;-73
2023/11/18 12:05:06;;;;;;;6.28;2.25;;;8.80;99.90;;;;;;4948892;28;86568;-70
2023/11/18 12:07:38;;;;;;;8.35;2.50;;;8.80;99.90;;;;;;4944514;28;90046;-71
2023/11/18 12:10:13;;;;;;;4.63;2.13;;;8.90;99.90;;;;;;4941533;28;87170;-69
2023/11/18 12:12:41;;;;;;;5.53;1.88;;;8.90;99.90;;;;;;4936983;28;86947;-71
2023/11/18 12:15:17;;;;;;;4.15;1.80;;;8.90;99.90;;;;;;4947576;28;86479;-71
2023/11/18 12:17:56;;;;;;;4.60;1.88;;;8.90;99.90;;;;;;4944704;28;91053;-71
2023/11/18 12:20:45;;;;;;;6.97;1.77;;;8.90;99.90;;;;;;4950225;28;89045;-71
2023/11/18 12:23:18;;;;;;;4.75;1.73;;;8.90;99.90;;;;;;4949995;28;86497;-70
2023/11/18 12:26:05;;;;;;;7.43;1.98;;;8.90;99.90;;;;;;4951925;28;86452;-70
2023/11/18 12:28:45;;;;;;;4.13;1.40;;;8.90;99.90;;;;;;4955244;28;87810;-70
2023/11/18 12:31:17;;;;;;;3.15;2.03;;;8.90;99.90;;;;;;4954594;28;91708;-72
2023/11/18 12:33:54;;;;;;;5.82;1.65;;;8.90;99.90;;;;;;4947495;28;87142;-72
2023/11/18 12:36:29;;;;;;;3.60;1.45;;;9.00;99.90;;;;;;4946708;28;87032;-72
2023/11/18 12:39:13;;;;;;;3.10;1.48;;;9.00;99.90;;;;;;4957340;28;90717;-72
2023/11/18 12:41:42;;;;;;;4.55;1.35;;;9.10;99.90;;;;;;4948295;28;89663;-72
2023/11/18 12:44:26;;;;;;;1.42;0.75;;;9.10;99.90;;;;;;4961575;28;87030;-72
2023/11/18 12:46:55;;;;;;;4.63;0.90;;;9.10;99.90;;;;;;4951688;28;86314;-78
2023/11/18 12:49:24;;;;;;;3.03;0.80;;;9.20;99.90;;;;;;4978995;28;86494;-79
2023/11/18 12:52:00;;;;;;;3.17;0.90;;;9.20;99.90;;;;;;4971818;28;90030;-78
2023/11/18 12:54:29;;;;;;;1.10;0.70;;;9.20;99.90;;;;;;4976147;28;87164;-78
2023/11/18 12:56:55;;;;;;;3.45;0.70;;;9.20;99.90;;;;;;4967983;28;86122;-78
2023/11/18 12:59:21;;;;;;;4.20;0.70;;;9.30;99.90;;;;;;4967479;28;86437;-78
2023/11/18 13:01:56;;;;;;;2.22;0.55;;;9.30;99.90;;;;;;4961007;28;86023;-78